Time;durP1;ratioP1;P1;durP2;ratioP2;P2;SDS_P1;SDS_P2;PMS_P1;PMS_P2;Temp;Humidity;BMP_temperature;BMP_pressure;BME280_temperature;BME280_humidity;BME280_pressure;Samples;Min_cycle;Max_cycle;Signal;HPM_P1;HPM_P2
2022/01/05 00:00:11;;;;;;;12.30;8.00;;;;;;;3.06;79.43;98608.38;25164;1313;3026919;-73
2022/01/05 00:02:42;;;;;;;12.80;8.60;;;;;;;2.84;80.31;98608.30;25138;1312;3070446;-74
2022/01/05 00:05:11;;;;;;;17.50;8.30;;;;;;;2.56;81.07;98608.23;25112;1312;3026961;-75
2022/01/05 00:07:41;;;;;;;12.00;7.30;;;;;;;2.36;82.39;98610.12;25144;1312;3052936;-73
2022/01/05 00:10:10;;;;;;;14.50;8.20;;;;;;;2.75;81.38;98599.68;25136;1313;3054903;-73
2022/01/05 00:12:39;;;;;;;14.30;8.40;;;;;;;2.94;80.16;98594.56;25170;1312;3051117;-72
2022/01/05 00:15:09;;;;;;;11.50;7.80;;;;;;;2.89;80.36;98591.14;25144;1312;3026257;-73
2022/01/05 00:17:38;;;;;;;15.50;8.50;;;;;;;2.71;81.23;98593.63;25119;1313;3051766;-73
2022/01/05 00:20:07;;;;;;;14.60;8.50;;;;;;;2.69;81.58;98592.34;25172;1314;3026403;-73
2022/01/05 00:22:36;;;;;;;17.20;9.90;;;;;;;2.47;82.34;98592.90;25131;1313;3058193;-72
2022/01/05 00:25:07;;;;;;;12.80;8.20;;;;;;;2.40;82.78;98585.44;25134;1312;3026438;-73
2022/01/05 00:27:36;;;;;;;16.90;8.60;;;;;;;2.87;81.80;98574.59;25160;1312;3026599;-73
2022/01/05 00:30:06;;;;;;;14.90;8.30;;;;;;;3.24;79.88;98566.91;25136;1312;3026499;-72
2022/01/05 00:32:36;;;;;;;13.80;8.70;;;;;;;3.16;80.42;98564.38;25133;1313;3051438;-74
2022/01/05 00:35:06;;;;;;;13.80;8.80;;;;;;;3.06;80.93;98563.27;25126;1313;3026224;-72
2022/01/05 00:37:35;;;;;;;14.40;8.40;;;;;;;3.01;81.20;98564.13;25128;1312;3056957;-74
2022/01/05 00:40:04;;;;;;;13.30;7.60;;;;;;;2.88;81.99;98566.93;25145;1313;3026601;-72
2022/01/05 00:42:33;;;;;;;13.70;6.00;;;;;;;2.67;82.98;98564.03;25129;1312;3055417;-72
2022/01/05 00:45:03;;;;;;;10.40;6.40;;;;;;;3.06;82.11;98558.89;25135;1313;3027014;-73
2022/01/05 00:47:32;;;;;;;12.40;7.50;;;;;;;3.41;80.70;98554.05;25157;1313;3053937;-74
2022/01/05 00:50:01;;;;;;;12.80;7.40;;;;;;;3.44;80.25;98547.67;25135;1312;3026748;-73
2022/01/05 00:52:30;;;;;;;12.40;7.60;;;;;;;3.26;80.50;98546.75;25161;1313;3047998;-73
2022/01/05 00:54:59;;;;;;;13.20;7.40;;;;;;;3.25;80.68;98548.36;25183;1313;3026517;-73
2022/01/05 00:57:28;;;;;;;13.40;7.20;;;;;;;3.05;81.81;98545.80;25143;1313;3066966;-73
2022/01/05 00:59:57;;;;;;;12.10;6.30;;;;;;;2.99;82.38;98543.48;25139;1313;3026772;-73
2022/01/05 01:02:26;;;;;;;9.10;5.70;;;;;;;3.50;80.99;98535.11;25152;1312;3026134;-72
2022/01/05 01:04:55;;;;;;;13.70;7.00;;;;;;;3.87;79.30;98535.30;25165;1313;3067968;-73
2022/01/05 01:07:26;;;;;;;12.10;6.70;;;;;;;3.55;79.81;98537.67;25150;1312;3028261;-72
2022/01/05 01:09:55;;;;;;;13.20;7.70;;;;;;;3.33;80.82;98545.05;25165;1312;3026780;-72
2022/01/05 01:12:24;;;;;;;13.60;8.40;;;;;;;3.15;81.77;98545.21;25136;1312;3070928;-71
2022/01/05 01:14:53;;;;;;;17.20;8.60;;;;;;;3.09;81.79;98542.86;25176;1313;3028262;-72
2022/01/05 01:17:22;;;;;;;10.90;5.80;;;;;;;2.87;82.67;98542.11;25137;1312;3029280;-71
2022/01/05 01:19:51;;;;;;;10.40;6.70;;;;;;;3.22;82.14;98537.23;25103;1313;3071063;-73
2022/01/05 01:22:20;;;;;;;10.40;6.60;;;;;;;3.45;81.14;98532.21;25197;1313;3026953;-74
2022/01/05 01:24:49;;;;;;;10.50;6.80;;;;;;;3.54;80.10;98523.16;25163;1313;3051100;-73
2022/01/05 01:27:17;;;;;;;12.30;6.80;;;;;;;3.38;80.98;98523.36;25121;1312;3028195;-72
2022/01/05 01:29:47;;;;;;;14.60;7.50;;;;;;;3.22;81.20;98526.34;25163;1313;3055541;-74
2022/01/05 01:32:16;;;;;;;11.60;7.30;;;;;;;3.16;81.62;98522.31;25128;1312;3026187;-72
2022/01/05 01:34:45;;;;;;;10.00;6.10;;;;;;;3.01;82.49;98519.67;25130;1313;3049298;-71
2022/01/05 01:37:14;;;;;;;12.20;6.90;;;;;;;3.39;81.93;98516.23;25150;1312;3026731;-73
2022/01/05 01:39:43;;;;;;;10.80;6.20;;;;;;;3.77;79.85;98510.12;25130;1313;3057890;-73
2022/01/05 01:42:12;;;;;;;13.50;7.30;;;;;;;3.85;79.14;98513.73;25197;1312;3026444;-73
2022/01/05 01:44:41;;;;;;;12.90;7.50;;;;;;;3.75;79.22;98512.64;25124;1312;3055472;-71
2022/01/05 01:47:11;;;;;;;12.60;7.40;;;;;;;3.36;80.41;98510.48;25141;1312;3026733;-71
2022/01/05 01:49:42;;;;;;;12.40;7.00;;;;;;;3.28;81.03;98505.66;25160;1312;3027653;-72
2022/01/05 01:52:10;;;;;;;11.40;6.20;;;;;;;3.24;81.20;98504.48;25219;1312;3026020;-72
2022/01/05 01:54:39;;;;;;;8.90;5.30;;;;;;;3.43;80.97;98496.51;25156;1311;3058688;-73
2022/01/05 01:57:08;;;;;;;12.10;6.30;;;;;;;3.69;79.77;98493.69;25116;1313;3028130;-72
2022/01/05 01:59:37;;;;;;;15.10;6.50;;;;;;;3.59;79.90;98487.79;25162;1312;3052184;-70
2022/01/05 02:02:08;;;;;;;11.70;6.50;;;;;;;3.50;80.32;98479.70;25100;1312;3027117;-72
2022/01/05 02:04:39;;;;;;;13.60;7.00;;;;;;;3.42;80.67;98475.73;25087;1312;3051890;-72
2022/01/05 02:07:08;;;;;;;11.30;6.00;;;;;;;3.22;81.37;98468.23;25145;1312;3026756;-71
2022/01/05 02:09:37;;;;;;;9.30;5.40;;;;;;;3.22;81.73;98460.77;25145;1313;3027048;-73
2022/01/05 02:12:07;;;;;;;10.90;5.40;;;;;;;3.65;80.76;98454.91;25130;1311;3027665;-71
2022/01/05 02:14:36;;;;;;;8.80;5.10;;;;;;;3.91;79.32;98449.65;25168;1312;3051384;-71
2022/01/05 02:17:11;;;;;;;8.30;5.40;;;;;;;3.74;79.85;98448.44;25146;1312;3026592;-73
2022/01/05 02:19:41;;;;;;;11.00;5.30;;;;;;;3.75;79.80;98445.97;25169;1312;3054629;-72
2022/01/05 02:22:10;;;;;;;10.20;5.10;;;;;;;3.71;79.81;98437.66;25161;1312;3026621;-72
2022/01/05 02:24:39;;;;;;;11.70;5.20;;;;;;;3.61;80.18;98434.85;25164;1312;3026215;-72
2022/01/05 02:27:08;;;;;;;8.40;4.50;;;;;;;3.55;80.68;98429.61;25150;1312;3052701;-71
2022/01/05 02:29:37;;;;;;;8.00;4.00;;;;;;;4.08;79.29;98429.80;25161;1312;3026512;-73
2022/01/05 02:32:06;;;;;;;7.90;4.30;;;;;;;4.43;77.33;98423.48;25119;1313;3026699;-72
2022/01/05 02:34:35;;;;;;;7.00;3.80;;;;;;;4.47;76.93;98423.63;25153;1312;3051605;-71
2022/01/05 02:37:04;;;;;;;8.30;4.00;;;;;;;4.27;77.30;98413.36;25175;1312;3026948;-71
2022/01/05 02:39:33;;;;;;;9.30;4.30;;;;;;;4.04;78.11;98416.27;25176;1312;3051374;-72
2022/01/05 02:42:03;;;;;;;9.00;5.00;;;;;;;3.82;78.97;98409.76;25144;1313;3026307;-73
2022/01/05 02:44:32;;;;;;;6.00;3.60;;;;;;;3.77;79.62;98404.61;25141;1312;3026263;-68
2022/01/05 02:47:01;;;;;;;8.60;3.70;;;;;;;4.25;78.10;98388.66;25119;1312;3026919;-71
2022/01/05 02:49:29;;;;;;;8.70;4.30;;;;;;;4.34;77.49;98388.41;25178;1312;3051799;-72
2022/01/05 02:52:00;;;;;;;8.40;3.60;;;;;;;4.34;77.40;98381.15;25117;1312;3028065;-74
2022/01/05 02:54:30;;;;;;;8.70;4.30;;;;;;;4.18;78.04;98375.55;25170;1312;3048563;-72
2022/01/05 02:57:00;;;;;;;8.10;4.30;;;;;;;4.01;78.66;98368.95;25161;1312;3026158;-74
2022/01/05 02:59:29;;;;;;;9.20;4.70;;;;;;;3.93;79.21;98365.04;25140;1312;3029850;-72
2022/01/05 03:01:58;;;;;;;5.50;3.60;;;;;;;3.84;79.78;98356.14;25141;1312;3026374;-74
2022/01/05 03:04:27;;;;;;;7.30;3.70;;;;;;;4.21;78.86;98362.57;25132;1313;3056031;-73
2022/01/05 03:06:56;;;;;;;8.50;3.90;;;;;;;4.45;77.19;98358.49;25140;1312;3026541;-71
2022/01/05 03:09:26;;;;;;;8.70;4.10;;;;;;;4.37;77.49;98359.11;25120;1312;3051087;-72
2022/01/05 03:11:55;;;;;;;7.30;3.70;;;;;;;4.26;77.75;98354.15;25135;1312;3028164;-71
2022/01/05 03:14:24;;;;;;;10.20;4.80;;;;;;;4.12;78.18;98352.63;25153;1313;3070894;-72
2022/01/05 03:16:53;;;;;;;9.60;4.50;;;;;;;4.05;78.59;98357.64;25158;1312;3026442;-73
2022/01/05 03:19:22;;;;;;;9.20;4.20;;;;;;;3.95;79.51;98350.88;25163;1312;3050999;-73
2022/01/05 03:21:51;;;;;;;7.90;3.90;;;;;;;4.40;78.11;98342.14;25182;1312;3028922;-72
2022/01/05 03:24:20;;;;;;;6.10;3.10;;;;;;;4.79;76.49;98337.61;25160;1312;3052981;-71
2022/01/05 03:26:49;;;;;;;8.00;3.60;;;;;;;4.73;76.03;98338.48;25176;1312;3028761;-71
2022/01/05 03:29:17;;;;;;;8.80;4.60;;;;;;;4.45;76.86;98344.81;25134;1312;3049016;-73
2022/01/05 03:31:46;;;;;;;9.00;4.30;;;;;;;4.15;78.22;98340.65;25162;1312;3028933;-74
2022/01/05 03:34:19;;;;;;;8.50;4.50;;;;;;;4.05;78.59;98339.48;25197;1312;3054841;-72
2022/01/05 03:36:48;;;;;;;7.60;4.40;;;;;;;3.89;79.49;98330.20;25120;1312;3026477;-71
2022/01/05 03:39:17;;;;;;;9.00;3.90;;;;;;;3.97;79.88;98334.17;25169;1312;3027110;-72
2022/01/05 03:41:46;;;;;;;9.80;5.00;;;;;;;4.39;78.18;98339.73;25203;1312;3026957;-74
2022/01/05 03:44:15;;;;;;;13.20;5.60;;;;;;;4.49;77.71;98339.91;25130;1312;3051713;-74
2022/01/05 03:46:44;;;;;;;10.50;5.80;;;;;;;4.31;77.90;98342.77;25130;1312;3027340;-73
2022/01/05 03:49:12;;;;;;;12.10;6.30;;;;;;;3.91;79.65;98338.98;25128;1312;3056804;-73
2022/01/05 03:51:42;;;;;;;10.00;5.80;;;;;;;3.79;80.12;98337.15;25125;1312;3027455;-73
2022/01/05 03:54:12;;;;;;;12.90;6.30;;;;;;;3.59;81.04;98326.88;25138;1312;3026086;-72
2022/01/05 03:56:40;;;;;;;10.40;4.90;;;;;;;3.57;81.35;98330.10;25150;1312;3057859;-72
2022/01/05 03:59:09;;;;;;;10.40;5.80;;;;;;;3.99;80.26;98340.64;25140;1312;3027530;-72
2022/01/05 04:01:38;;;;;;;14.10;7.10;;;;;;;4.27;79.19;98340.59;25136;1312;3052818;-73
2022/01/05 04:04:07;;;;;;;13.50;6.50;;;;;;;4.26;79.05;98330.95;25153;1311;3026382;-71
2022/01/05 04:06:36;;;;;;;15.70;8.20;;;;;;;4.21;79.08;98324.95;25190;1312;3054144;-72
2022/01/05 04:09:05;;;;;;;14.70;8.40;;;;;;;3.94;80.44;98318.90;25128;1312;3028055;-72
2022/01/05 04:11:35;;;;;;;15.40;7.40;;;;;;;3.88;80.68;98323.85;25156;1312;3051215;-73
2022/01/05 04:14:04;;;;;;;15.30;6.70;;;;;;;3.79;81.11;98309.94;25152;1312;3026408;-73
2022/01/05 04:16:33;;;;;;;12.00;6.80;;;;;;;4.16;80.14;98295.55;25149;1312;3067620;-72
2022/01/05 04:19:02;;;;;;;13.80;7.50;;;;;;;4.21;79.31;98293.54;25128;1312;3026709;-72
2022/01/05 04:21:31;;;;;;;12.50;6.10;;;;;;;4.10;79.57;98289.11;25125;1312;3053546;-74
2022/01/05 04:24:00;;;;;;;18.00;6.80;;;;;;;4.00;79.75;98291.90;25104;1312;3028118;-74
2022/01/05 04:26:29;;;;;;;9.30;5.70;;;;;;;3.80;81.04;98299.35;25145;1312;3055515;-74
2022/01/05 04:28:57;;;;;;;9.40;4.90;;;;;;;3.80;80.82;98290.49;25134;1312;3028297;-72
2022/01/05 04:31:26;;;;;;;13.80;5.00;;;;;;;4.22;79.67;98265.78;25118;1311;3049964;-72
2022/01/05 04:33:56;;;;;;;10.10;4.70;;;;;;;4.40;78.78;98266.02;25181;1312;3026733;-73
2022/01/05 04:36:25;;;;;;;10.10;5.00;;;;;;;4.36;78.73;98278.55;25151;1313;3058175;-71
2022/01/05 04:38:54;;;;;;;10.60;5.30;;;;;;;4.07;79.41;98291.86;25137;1312;3026216;-72
2022/01/05 04:41:23;;;;;;;9.40;4.50;;;;;;;3.90;80.40;98282.38;25118;1312;3029827;-73
2022/01/05 04:43:52;;;;;;;6.60;3.80;;;;;;;3.72;80.93;98276.16;25104;1312;3058208;-73
2022/01/05 04:46:21;;;;;;;9.20;3.80;;;;;;;3.72;80.90;98264.94;25121;1312;3026527;-73
2022/01/05 04:48:50;;;;;;;7.10;3.50;;;;;;;4.34;79.55;98249.02;25184;1312;3051452;-74
2022/01/05 04:51:19;;;;;;;4.90;2.90;;;;;;;4.62;77.46;98248.70;25163;1312;3027107;-74
2022/01/05 04:53:48;;;;;;;9.20;3.80;;;;;;;4.60;77.21;98237.54;25150;1312;3051278;-72
2022/01/05 04:56:18;;;;;;;6.70;3.40;;;;;;;4.37;77.92;98243.67;25118;1311;3026345;-73
2022/01/05 04:58:47;;;;;;;8.40;3.10;;;;;;;4.33;77.82;98224.63;25137;1312;3050847;-74
2022/01/05 05:01:15;;;;;;;5.90;3.40;;;;;;;4.02;79.01;98226.33;25168;1312;3026957;-74
2022/01/05 05:03:44;;;;;;;4.30;2.70;;;;;;;3.88;79.83;98263.55;25174;1312;3066540;-73
2022/01/05 05:06:13;;;;;;;5.80;2.60;;;;;;;4.13;78.95;98258.62;25140;1312;3026872;-73
2022/01/05 05:08:42;;;;;;;6.20;2.60;;;;;;;4.21;78.42;98251.09;25178;1312;3049767;-72
2022/01/05 05:11:11;;;;;;;4.50;2.80;;;;;;;4.30;78.20;98253.74;25149;1312;3026498;-74
2022/01/05 05:13:40;;;;;;;6.70;3.00;;;;;;;4.22;78.19;98249.68;25125;1311;3055284;-74
2022/01/05 05:16:08;;;;;;;5.70;2.70;;;;;;;4.22;78.06;98220.23;25166;1312;3026955;-73
2022/01/05 05:18:37;;;;;;;5.60;3.00;;;;;;;4.11;78.33;98202.59;25124;1312;3050497;-73
2022/01/05 05:21:07;;;;;;;3.80;2.10;;;;;;;3.85;79.40;98203.46;25136;1311;3026607;-74
2022/01/05 05:23:36;;;;;;;5.70;2.20;;;;;;;4.58;77.58;98190.84;25129;1312;3060073;-75
2022/01/05 05:26:04;;;;;;;5.00;2.30;;;;;;;4.63;76.57;98207.02;25125;1312;3028829;-73
2022/01/05 05:28:33;;;;;;;6.30;2.30;;;;;;;4.49;77.16;98215.95;25128;1314;3054068;-73
2022/01/05 05:31:11;;;;;;;4.10;2.00;;;;;;;4.32;77.55;98217.89;25127;1312;3057596;-73
2022/01/05 05:33:40;;;;;;;6.40;2.30;;;;;;;4.08;78.71;98228.73;25118;1312;3025947;-72
2022/01/05 05:36:09;;;;;;;7.10;2.50;;;;;;;4.04;78.90;98231.21;25118;1312;3054231;-73
2022/01/05 05:38:39;;;;;;;4.10;2.10;;;;;;;3.96;79.15;98230.43;25129;1312;3026544;-73
2022/01/05 05:41:08;;;;;;;3.30;2.20;;;;;;;4.18;78.94;98224.57;25145;1312;3027076;-74
2022/01/05 05:43:37;;;;;;;4.40;2.00;;;;;;;4.54;77.64;98218.41;25161;1310;3054772;-74
2022/01/05 05:46:06;;;;;;;3.50;2.00;;;;;;;4.51;77.62;98219.15;25174;1309;3027154;-73
2022/01/05 05:48:35;;;;;;;3.20;2.10;;;;;;;4.42;78.17;98213.05;25140;1311;3051124;-73
2022/01/05 05:51:04;;;;;;;6.80;2.40;;;;;;;4.16;78.87;98222.58;25156;1309;3027259;-74
2022/01/05 05:53:33;;;;;;;4.70;2.40;;;;;;;3.88;80.29;98219.39;25153;1309;3029395;-74
2022/01/05 05:56:03;;;;;;;4.50;2.00;;;;;;;3.95;80.25;98213.84;25167;1309;3051578;-73
2022/01/05 05:58:32;;;;;;;3.90;1.90;;;;;;;4.15;79.89;98219.17;25132;1312;3026716;-73
2022/01/05 06:01:01;;;;;;;4.30;1.70;;;;;;;4.57;78.18;98203.37;25139;1309;3051374;-73
2022/01/05 06:03:30;;;;;;;5.40;2.30;;;;;;;4.43;77.98;98186.10;25175;1309;3026393;-74
2022/01/05 06:05:59;;;;;;;5.60;2.40;;;;;;;4.26;78.34;98180.59;25190;1309;3068748;-72
2022/01/05 06:08:28;;;;;;;5.10;2.30;;;;;;;4.04;79.35;98168.52;25167;1309;3026674;-73
2022/01/05 06:10:56;;;;;;;4.30;2.20;;;;;;;3.86;80.09;98184.67;25218;1309;3053212;-73
2022/01/05 06:13:25;;;;;;;5.40;1.90;;;;;;;3.89;79.90;98175.68;25147;1309;3026044;-73
2022/01/05 06:15:54;;;;;;;4.30;2.00;;;;;;;4.16;79.21;98169.91;25164;1312;3054603;-74
2022/01/05 06:18:26;;;;;;;3.80;1.70;;;;;;;4.35;77.89;98171.48;25149;1309;3026816;-74
2022/01/05 06:20:55;;;;;;;5.30;2.20;;;;;;;4.50;77.19;98159.73;25144;1309;3027678;-74
2022/01/05 06:23:24;;;;;;;4.60;2.30;;;;;;;4.11;78.14;98170.88;25137;1309;3029045;-73
2022/01/05 06:25:53;;;;;;;5.50;2.30;;;;;;;4.06;78.24;98158.66;25169;1309;3053636;-72
2022/01/05 06:28:22;;;;;;;5.70;2.20;;;;;;;3.87;78.73;98168.85;25116;1312;3029907;-74
2022/01/05 06:30:50;;;;;;;3.00;1.70;;;;;;;3.79;79.15;98178.15;25174;1309;3052213;-72
2022/01/05 06:33:19;;;;;;;3.80;2.00;;;;;;;4.14;78.10;98153.05;25145;1312;3026446;-73
2022/01/05 06:35:49;;;;;;;5.00;2.10;;;;;;;4.43;76.45;98165.63;25143;1309;3049369;-76
2022/01/05 06:38:18;;;;;;;5.00;2.10;;;;;;;4.42;76.05;98162.77;25157;1312;3026580;-73
2022/01/05 06:40:47;;;;;;;3.60;2.00;;;;;;;4.29;76.19;98165.70;25147;1312;3056310;-74
2022/01/05 06:43:17;;;;;;;8.00;2.30;;;;;;;4.09;76.70;98172.71;25182;1310;3027621;-74
2022/01/05 06:45:46;;;;;;;6.40;2.20;;;;;;;3.88;77.44;98193.23;25201;1309;3030232;-72
2022/01/05 06:48:14;;;;;;;3.30;2.20;;;;;;;3.92;77.29;98198.94;25124;1312;3055090;-74
2022/01/05 06:50:43;;;;;;;5.00;2.50;;;;;;;3.96;77.12;98199.23;25154;1309;3026698;-73
2022/01/05 06:53:14;;;;;;;5.10;2.30;;;;;;;4.20;76.48;98207.98;25159;1312;3054655;-72
2022/01/05 06:55:43;;;;;;;6.50;2.10;;;;;;;4.52;75.02;98208.86;25147;1312;3028905;-70
2022/01/05 06:58:12;;;;;;;5.80;2.30;;;;;;;4.59;74.68;98208.80;25163;1309;3027453;-73
2022/01/05 07:00:41;;;;;;;5.30;2.60;;;;;;;4.34;75.21;98233.92;25133;1312;3054390;-75
2022/01/05 07:03:10;;;;;;;4.90;2.70;;;;;;;4.09;76.31;98229.23;25140;1312;3026535;-74
2022/01/05 07:05:40;;;;;;;6.10;2.80;;;;;;;4.19;75.95;98227.65;24866;1309;3434742;-74
2022/01/05 07:08:09;;;;;;;8.00;2.90;;;;;;;4.13;76.34;98238.33;25224;1309;3026272;-75
2022/01/05 07:10:38;;;;;;;5.50;2.20;;;;;;;4.11;76.71;98247.33;25214;1309;3050220;-74
2022/01/05 07:13:08;;;;;;;5.10;2.00;;;;;;;4.39;76.03;98244.04;25171;1311;3027007;-73
2022/01/05 07:15:36;;;;;;;4.40;2.60;;;;;;;4.43;75.62;98245.77;25129;1312;3069578;-75
2022/01/05 07:18:05;;;;;;;4.80;2.60;;;;;;;4.39;76.02;98247.52;25153;1309;3026924;-73
2022/01/05 07:20:35;;;;;;;6.40;2.80;;;;;;;4.39;76.20;98244.91;25141;1312;3053621;-76
2022/01/05 07:23:03;;;;;;;7.60;2.80;;;;;;;4.34;76.48;98239.13;25148;1312;3026930;-74
2022/01/05 07:25:33;;;;;;;6.70;3.40;;;;;;;4.21;77.09;98237.95;25181;1309;3055635;-75
2022/01/05 07:28:02;;;;;;;6.30;2.90;;;;;;;4.22;77.12;98237.69;25154;1309;3027187;-74
2022/01/05 07:30:31;;;;;;;6.30;2.90;;;;;;;4.49;76.20;98240.54;25153;1309;3026831;-74
2022/01/05 07:33:00;;;;;;;7.40;2.90;;;;;;;4.85;74.95;98212.70;25188;1309;3029531;-75
2022/01/05 07:35:29;;;;;;;8.00;2.80;;;;;;;4.91;74.55;98203.15;25167;1309;3050809;-73
2022/01/05 07:37:58;;;;;;;5.70;3.40;;;;;;;4.75;75.08;98206.34;25184;1309;3028894;-74
2022/01/05 07:40:27;;;;;;;6.20;3.20;;;;;;;4.52;75.76;98201.20;25159;1309;3052805;-73
2022/01/05 07:42:56;;;;;;;6.60;2.90;;;;;;;4.34;76.75;98202.23;25151;1312;3026514;-75
2022/01/05 07:45:26;;;;;;;5.20;2.80;;;;;;;4.22;77.04;98202.34;25155;1309;3054049;-74
2022/01/05 07:47:55;;;;;;;6.40;2.60;;;;;;;4.17;77.53;98202.29;25177;1309;3027588;-74
2022/01/05 07:50:24;;;;;;;8.00;2.50;;;;;;;4.66;76.23;98208.59;25176;1309;3054637;-73
2022/01/05 07:52:52;;;;;;;6.60;2.50;;;;;;;4.97;74.60;98218.29;25217;1309;3026123;-74
2022/01/05 07:55:21;;;;;;;7.00;2.70;;;;;;;4.76;74.91;98224.13;25157;1309;3054447;-74
2022/01/05 07:57:50;;;;;;;5.90;2.70;;;;;;;4.63;75.47;98227.66;25173;1310;3026403;-74
2022/01/05 08:00:19;;;;;;;6.10;2.90;;;;;;;4.52;75.97;98218.69;25172;1309;3055301;-73
2022/01/05 08:02:48;;;;;;;5.70;2.20;;;;;;;4.40;76.47;98227.88;25168;1309;3027284;-74
2022/01/05 08:05:17;;;;;;;6.90;2.70;;;;;;;4.25;76.86;98225.93;25167;1310;3048282;-73
2022/01/05 08:07:46;;;;;;;4.30;2.30;;;;;;;4.15;77.28;98231.65;25225;1312;3026455;-73
2022/01/05 08:10:21;;;;;;;5.80;2.80;;;;;;;4.40;76.69;98221.97;25192;1309;3071847;-74
2022/01/05 08:12:50;;;;;;;5.70;2.90;;;;;;;4.67;75.51;98217.90;25134;1309;3027024;-74
2022/01/05 08:15:19;;;;;;;8.60;3.30;;;;;;;4.67;75.12;98212.52;25185;1309;3028162;-74
2022/01/05 08:18:01;;;;;;;10.10;3.80;;;;;;;4.49;76.07;98213.69;25188;1309;3071492;-74
2022/01/05 08:20:30;;;;;;;17.00;4.30;;;;;;;4.27;76.90;98207.77;25151;1312;3027484;-75
2022/01/05 08:22:59;;;;;;;8.20;3.50;;;;;;;4.25;77.71;98196.82;25145;1312;3028956;-74
2022/01/05 08:25:28;;;;;;;10.00;2.80;;;;;;;4.23;77.99;98203.02;25188;1310;3070505;-72
2022/01/05 08:27:57;;;;;;;8.00;2.80;;;;;;;4.62;76.97;98184.52;25161;1309;3028072;-74
2022/01/05 08:30:27;;;;;;;5.60;3.50;;;;;;;4.84;75.99;98182.23;25179;1309;3053333;-74
2022/01/05 08:32:56;;;;;;;8.80;2.80;;;;;;;4.74;76.32;98180.54;25211;1309;3028714;-73
2022/01/05 08:35:26;;;;;;;9.20;3.10;;;;;;;4.79;76.42;98176.45;25182;1309;3026256;-75
2022/01/05 08:37:55;;;;;;;8.20;3.50;;;;;;;4.60;77.24;98180.62;25173;1309;3051117;-73
2022/01/05 08:40:25;;;;;;;7.60;3.40;;;;;;;4.40;78.26;98185.73;25156;1309;3026809;-75
2022/01/05 08:42:54;;;;;;;12.60;4.10;;;;;;;4.41;78.56;98181.21;25185;1309;3055408;-75
2022/01/05 08:45:24;;;;;;;9.30;4.10;;;;;;;4.81;77.75;98177.89;25138;1312;3026683;-73
2022/01/05 08:47:54;;;;;;;13.50;4.00;;;;;;;5.17;76.41;98177.70;25139;1310;3027424;-73
2022/01/05 08:50:24;;;;;;;9.00;4.30;;;;;;;5.01;76.64;98188.87;25128;1309;3026813;-75
2022/01/05 08:52:54;;;;;;;7.70;3.90;;;;;;;4.93;77.19;98187.98;25170;1309;3026540;-75
2022/01/05 08:55:27;;;;;;;13.20;6.40;;;;;;;4.82;77.58;98193.98;25182;1309;3026962;-73
2022/01/05 08:57:56;;;;;;;12.30;5.20;;;;;;;4.65;78.71;98193.55;25185;1309;3048757;-73
2022/01/05 09:00:26;;;;;;;14.00;5.00;;;;;;;4.68;79.17;98192.88;25167;1309;3026932;-74
2022/01/05 09:02:55;;;;;;;9.10;4.70;;;;;;;5.06;78.42;98186.52;25176;1309;3028376;-74
2022/01/05 09:05:24;;;;;;;11.90;5.40;;;;;;;5.40;77.26;98185.90;25191;1309;3027436;-74
2022/01/05 09:07:53;;;;;;;18.10;6.20;;;;;;;5.27;77.48;98184.95;25163;1312;3026505;-73
2022/01/05 09:10:22;;;;;;;12.90;6.20;;;;;;;4.98;78.77;98183.69;25179;1309;3051299;-73
2022/01/05 09:12:53;;;;;;;16.30;7.40;;;;;;;4.80;80.07;98183.50;25148;1309;3026415;-74
2022/01/05 09:15:23;;;;;;;12.50;5.90;;;;;;;4.81;80.34;98185.02;25117;1312;3054464;-75
2022/01/05 09:17:52;;;;;;;13.40;6.40;;;;;;;5.22;79.22;98170.98;25169;1309;3027260;-74
2022/01/05 09:20:21;;;;;;;13.20;6.40;;;;;;;5.47;78.15;98162.02;25157;1309;3029061;-73
2022/01/05 09:22:50;;;;;;;14.10;6.10;;;;;;;5.36;78.45;98151.42;25141;1312;3054605;-74
2022/01/05 09:25:20;;;;;;;15.60;6.90;;;;;;;5.31;78.98;98144.61;25148;1309;3026511;-73
2022/01/05 09:27:51;;;;;;;18.80;7.80;;;;;;;5.17;79.66;98145.63;25177;1312;3051596;-73
2022/01/05 09:30:20;;;;;;;12.70;5.60;;;;;;;5.07;80.29;98143.58;25220;1309;3027166;-73
2022/01/05 09:32:50;;;;;;;13.70;6.60;;;;;;;5.52;78.94;98138.50;25159;1309;3026790;-74
2022/01/05 09:35:22;;;;;;;14.60;5.80;;;;;;;5.72;78.44;98124.39;25185;1309;3026468;-75
2022/01/05 09:38:09;;;;;;;15.10;5.60;;;;;;;5.68;78.56;98133.15;25203;1309;3052537;-73
2022/01/05 09:43:26;;;;;;;14.40;6.60;;;;;;;5.24;80.40;98140.14;25176;1312;3058898;-72
2022/01/05 09:46:06;;;;;;;12.50;5.10;;;;;;;5.22;80.67;98150.36;25179;1309;3026446;-73
2022/01/05 09:49:00;;;;;;;14.40;5.40;;;;;;;5.65;79.52;98140.11;25170;1310;3052575;-75
2022/01/05 09:51:31;;;;;;;15.60;7.10;;;;;;;5.74;78.61;98142.17;25162;1309;3059885;-75
2022/01/05 09:54:02;;;;;;;16.40;7.50;;;;;;;5.56;79.38;98142.04;25142;1309;3026922;-72
2022/01/05 09:56:32;;;;;;;14.10;7.00;;;;;;;5.51;79.57;98130.89;25179;1311;3026426;-72
2022/01/05 09:59:01;;;;;;;13.20;7.10;;;;;;;5.34;80.26;98127.24;25118;1313;3027433;-75
2022/01/05 10:01:32;;;;;;;15.20;5.50;;;;;;;5.15;81.27;98130.27;25153;1312;3026193;-72
2022/01/05 10:04:01;;;;;;;15.10;4.90;;;;;;;5.48;80.42;98118.03;25160;1309;3026514;-73
2022/01/05 10:06:36;;;;;;;14.40;5.60;;;;;;;5.64;79.81;98121.27;25164;1310;3026659;-75
2022/01/05 10:09:05;;;;;;;16.20;6.50;;;;;;;5.53;79.84;98121.92;25152;1309;3070526;-74
2022/01/05 10:11:35;;;;;;;12.80;5.10;;;;;;;5.39;80.72;98125.55;25135;1312;3026457;-74
2022/01/05 10:14:06;;;;;;;16.30;6.60;;;;;;;5.20;81.59;98117.98;25220;1309;3026776;-68
2022/01/05 10:16:36;;;;;;;12.20;4.80;;;;;;;5.13;82.12;98106.96;25293;1309;3026287;-73
2022/01/05 10:19:06;;;;;;;11.90;5.90;;;;;;;5.51;81.19;98099.46;25277;1309;3026935;-73
2022/01/05 10:21:36;;;;;;;16.50;6.00;;;;;;;5.72;80.33;98098.34;25180;1309;3053857;-75
2022/01/05 10:24:05;;;;;;;14.60;7.00;;;;;;;5.65;80.58;98091.83;25250;1309;3028100;-74
2022/01/05 10:26:38;;;;;;;11.10;7.20;;;;;;;5.42;81.17;98096.88;25151;1310;3027098;-75
2022/01/05 10:29:22;;;;;;;9.80;5.30;;;;;;;5.35;81.70;98100.06;25169;1309;3028570;-76
2022/01/05 10:31:52;;;;;;;11.90;5.70;;;;;;;5.33;81.95;98095.15;25202;1309;3056593;-74
2022/01/05 10:34:26;;;;;;;12.60;5.50;;;;;;;5.62;81.44;98111.45;25220;1309;3026534;-74
2022/01/05 10:36:56;;;;;;;9.20;5.30;;;;;;;5.82;80.89;98108.33;25144;1309;3068559;-73
2022/01/05 10:39:43;;;;;;;15.50;6.60;;;;;;;5.81;80.75;98104.75;25203;1310;3026533;-74
2022/01/05 10:42:13;;;;;;;17.50;7.20;;;;;;;5.54;82.13;98099.44;25184;1309;3054702;-73
2022/01/05 10:44:44;;;;;;;19.70;8.20;;;;;;;5.49;82.66;98102.70;25193;1310;3026425;-75
2022/01/05 10:47:17;;;;;;;14.50;5.90;;;;;;;5.36;83.80;98099.17;25096;1313;3026974;-74
2022/01/05 10:49:48;;;;;;;14.20;5.80;;;;;;;5.85;82.19;98094.94;25155;1311;3051726;-75
2022/01/05 10:52:31;;;;;;;14.60;7.70;;;;;;;6.02;81.05;98098.59;25180;1309;3026925;-73
2022/01/05 10:55:17;;;;;;;15.90;7.40;;;;;;;5.78;82.27;98084.41;25167;1310;3054632;-74
2022/01/05 10:58:12;;;;;;;17.40;8.20;;;;;;;5.71;82.62;98081.91;25176;1309;3069476;-72
2022/01/05 11:00:45;;;;;;;12.40;6.50;;;;;;;5.52;83.73;98089.48;25368;1310;3052189;-72
2022/01/05 11:03:35;;;;;;;15.10;6.60;;;;;;;5.61;84.05;98089.13;25156;1309;3027222;-74
2022/01/05 11:06:11;;;;;;;16.60;8.00;;;;;;;5.92;82.67;98083.17;25218;1309;3055723;-76
2022/01/05 11:08:59;;;;;;;18.60;8.10;;;;;;;5.93;82.35;98089.73;25196;1309;3058517;-72
2022/01/05 11:11:43;;;;;;;18.00;9.00;;;;;;;5.71;83.54;98085.70;25154;1312;3050201;-73
2022/01/05 11:14:13;;;;;;;21.70;8.80;;;;;;;5.57;83.91;98099.91;25181;1309;3056178;-76
2022/01/05 11:16:53;;;;;;;20.20;7.90;;;;;;;5.79;83.93;98098.43;25201;1312;3054493;-72
2022/01/05 11:19:29;;;;;;;22.50;9.20;;;;;;;6.05;82.86;98093.33;25198;1310;3026330;-74
2022/01/05 11:22:05;;;;;;;17.60;7.70;;;;;;;5.99;82.84;98097.73;25189;1309;3052176;-73
2022/01/05 11:24:37;;;;;;;19.40;9.40;;;;;;;5.73;83.85;98087.18;25225;1309;3054769;-75
2022/01/05 11:27:09;;;;;;;13.90;7.80;;;;;;;5.59;84.64;98088.86;25209;1309;3026379;-75
2022/01/05 11:29:39;;;;;;;17.00;8.20;;;;;;;5.58;84.83;98087.23;25122;1312;3028886;-76
2022/01/05 11:32:09;;;;;;;14.80;7.80;;;;;;;5.97;84.08;98075.05;25154;1312;3026442;-72
2022/01/05 11:34:38;;;;;;;19.40;9.00;;;;;;;6.12;83.04;98079.87;25169;1312;3068401;-74
2022/01/05 11:37:07;;;;;;;18.80;9.70;;;;;;;5.95;83.40;98079.04;25173;1311;3028832;-73